Time;durP1;ratioP1;P1;durP2;ratioP2;P2;SDS_P1;SDS_P2;PMS_P1;PMS_P2;Temp;Humidity;BMP_temperature;BMP_pressure;BME280_temperature;BME280_humidity;BME280_pressure;Samples;Min_cycle;Max_cycle;Signal;HPM_P1;HPM_P2
2022/03/13 00:00:49;;;;;;;8.57;6.80;;;5.00;44.80;;;;;;924445;154;27326;-78
2022/03/13 00:03:15;;;;;;;11.00;7.23;;;5.00;45.00;;;;;;924312;152;27321;-80
2022/03/13 00:05:42;;;;;;;9.97;7.67;;;4.90;45.00;;;;;;922915;154;27401;-80
2022/03/13 00:08:31;;;;;;;11.70;8.27;;;4.90;45.00;;;;;;923806;154;27347;-81
2022/03/13 00:10:59;;;;;;;10.40;7.07;;;4.80;45.10;;;;;;924550;151;27356;-78
2022/03/13 00:13:25;;;;;;;12.50;7.17;;;4.80;45.10;;;;;;922651;151;27306;-78
2022/03/13 00:15:52;;;;;;;10.03;7.67;;;4.70;45.20;;;;;;924563;154;27343;-78
2022/03/13 00:18:18;;;;;;;12.33;9.20;;;4.60;45.30;;;;;;923368;152;27310;-78
2022/03/13 00:20:45;;;;;;;10.30;8.07;;;4.60;45.50;;;;;;924541;151;27310;-79
2022/03/13 00:23:12;;;;;;;10.03;7.70;;;4.50;45.80;;;;;;918595;154;27412;-78
2022/03/13 00:25:38;;;;;;;12.27;7.97;;;4.50;45.70;;;;;;916598;155;27311;-78
2022/03/13 00:28:04;;;;;;;10.90;7.60;;;4.40;45.90;;;;;;917725;155;27329;-78
2022/03/13 00:30:31;;;;;;;9.33;6.60;;;4.30;45.90;;;;;;918183;152;27388;-78
2022/03/13 00:33:00;;;;;;;9.77;7.30;;;4.30;46.00;;;;;;918334;153;27296;-78
2022/03/13 00:35:24;;;;;;;9.27;6.57;;;4.20;46.10;;;;;;916537;154;27453;-78
2022/03/13 00:37:51;;;;;;;8.67;6.80;;;4.20;46.30;;;;;;918053;154;27455;-78
2022/03/13 00:40:17;;;;;;;7.77;6.37;;;4.20;46.40;;;;;;919729;154;27304;-78
2022/03/13 00:42:44;;;;;;;10.83;7.80;;;4.10;46.40;;;;;;918201;152;27406;-78
2022/03/13 00:45:11;;;;;;;9.83;7.70;;;4.10;46.50;;;;;;917909;152;27322;-78
2022/03/13 00:47:37;;;;;;;9.27;7.17;;;4.10;46.70;;;;;;917505;152;27386;-78
2022/03/13 00:50:04;;;;;;;11.57;8.40;;;4.00;46.70;;;;;;916164;155;28522;-78
2022/03/13 00:52:30;;;;;;;10.40;8.33;;;4.00;46.90;;;;;;919489;155;27333;-78
2022/03/13 00:54:57;;;;;;;12.90;8.50;;;4.00;47.00;;;;;;917418;154;27473;-78
2022/03/13 00:57:23;;;;;;;11.87;9.30;;;4.00;47.00;;;;;;919318;154;27324;-78
2022/03/13 00:59:50;;;;;;;11.53;8.80;;;3.90;47.10;;;;;;919321;155;27463;-78
2022/03/13 01:02:17;;;;;;;12.77;9.07;;;3.90;47.30;;;;;;917328;155;27376;-78
2022/03/13 01:04:43;;;;;;;13.73;9.40;;;3.90;47.50;;;;;;919267;154;27848;-78
2022/03/13 01:07:10;;;;;;;12.07;9.20;;;3.90;47.60;;;;;;915280;155;27337;-78
2022/03/13 01:09:37;;;;;;;10.70;8.57;;;3.90;48.20;;;;;;917444;155;27612;-78
2022/03/13 01:12:03;;;;;;;10.27;7.60;;;3.90;47.70;;;;;;918457;154;27390;-78
2022/03/13 01:14:32;;;;;;;13.03;9.70;;;3.80;47.70;;;;;;918101;153;27452;-78
2022/03/13 01:17:02;;;;;;;12.63;9.80;;;3.80;47.70;;;;;;918244;155;27338;-78
2022/03/13 01:19:29;;;;;;;11.97;8.53;;;3.80;47.90;;;;;;917166;155;27656;-78
2022/03/13 01:21:55;;;;;;;13.77;8.37;;;3.80;48.00;;;;;;918767;151;27350;-79
2022/03/13 01:24:24;;;;;;;9.83;7.40;;;3.70;48.10;;;;;;939583;149;27420;-78
2022/03/13 01:26:54;;;;;;;10.07;8.53;;;3.70;48.00;;;;;;935451;149;27489;-78
2022/03/13 01:29:20;;;;;;;10.90;8.17;;;3.70;48.20;;;;;;939323;149;27353;-78
2022/03/13 01:31:47;;;;;;;11.80;8.27;;;3.60;48.20;;;;;;939257;149;27363;-77
2022/03/13 01:34:14;;;;;;;10.07;7.23;;;3.60;48.30;;;;;;937226;149;27382;-78
2022/03/13 01:36:40;;;;;;;10.23;7.00;;;3.60;48.40;;;;;;939169;149;28040;-78
2022/03/13 01:39:07;;;;;;;8.57;6.60;;;3.50;47.60;;;;;;937145;149;27322;-78
2022/03/13 01:41:34;;;;;;;7.67;6.87;;;3.50;48.30;;;;;;937783;149;27294;-78
2022/03/13 01:44:00;;;;;;;9.17;6.83;;;3.40;48.30;;;;;;938877;149;27370;-78
2022/03/13 01:46:27;;;;;;;10.17;7.53;;;3.40;48.50;;;;;;938753;149;27360;-78
2022/03/13 01:48:56;;;;;;;11.80;7.60;;;3.30;48.40;;;;;;940450;149;28763;-78
2022/03/13 01:51:22;;;;;;;10.37;7.47;;;3.30;48.60;;;;;;938294;149;27382;-79
2022/03/13 01:53:54;;;;;;;8.43;6.73;;;3.30;48.60;;;;;;939066;149;27401;-78
2022/03/13 01:56:21;;;;;;;9.37;6.67;;;3.20;48.50;;;;;;939442;149;27384;-78
2022/03/13 01:58:48;;;;;;;9.23;6.33;;;3.20;48.70;;;;;;938379;149;27380;-79
2022/03/13 02:01:14;;;;;;;7.77;6.87;;;3.20;48.80;;;;;;938313;149;27340;-79
2022/03/13 02:03:41;;;;;;;8.30;7.20;;;3.20;48.80;;;;;;938770;149;27519;-79
2022/03/13 02:06:07;;;;;;;8.63;6.37;;;3.10;48.90;;;;;;939467;149;27334;-79
2022/03/13 02:08:34;;;;;;;7.70;6.13;;;3.10;48.90;;;;;;938703;149;27503;-79
2022/03/13 02:11:01;;;;;;;7.43;5.67;;;3.10;49.00;;;;;;938370;149;27321;-79
2022/03/13 02:13:27;;;;;;;7.47;6.00;;;3.00;48.90;;;;;;937339;149;27333;-79
2022/03/13 02:15:55;;;;;;;6.73;5.80;;;3.00;49.00;;;;;;938457;149;27306;-79
2022/03/13 02:18:20;;;;;;;8.57;6.13;;;3.00;49.00;;;;;;939322;149;27369;-79
2022/03/13 02:20:47;;;;;;;6.93;5.73;;;3.00;49.10;;;;;;938459;149;27403;-79
2022/03/13 02:23:25;;;;;;;8.87;6.57;;;2.90;49.10;;;;;;937232;149;27467;-79
2022/03/13 02:25:52;;;;;;;7.20;6.27;;;2.90;49.10;;;;;;932962;150;27318;-79
2022/03/13 02:28:19;;;;;;;7.47;5.77;;;2.90;49.00;;;;;;932031;150;27339;-79
2022/03/13 02:30:45;;;;;;;6.40;5.27;;;2.90;49.00;;;;;;932279;150;27861;-78
2022/03/13 02:33:12;;;;;;;6.37;4.90;;;2.80;49.00;;;;;;933328;150;27888;-79
2022/03/13 02:35:38;;;;;;;6.60;4.97;;;2.80;49.20;;;;;;933937;150;27428;-79
2022/03/13 02:38:05;;;;;;;4.60;4.17;;;2.80;49.10;;;;;;931385;150;27312;-79
2022/03/13 02:40:31;;;;;;;6.03;5.43;;;2.80;49.20;;;;;;930340;150;27337;-79
2022/03/13 02:42:58;;;;;;;7.80;5.50;;;2.80;49.30;;;;;;932370;150;27329;-79
2022/03/13 02:45:33;;;;;;;7.57;5.67;;;2.80;49.20;;;;;;932812;150;27466;-79
2022/03/13 02:48:02;;;;;;;5.20;4.27;;;2.80;49.40;;;;;;933103;150;27332;-79
2022/03/13 02:50:29;;;;;;;5.90;5.30;;;2.80;49.30;;;;;;933039;150;27386;-79
2022/03/13 02:52:56;;;;;;;7.00;5.37;;;2.80;49.30;;;;;;933197;150;27373;-79
2022/03/13 02:55:22;;;;;;;6.70;5.40;;;2.80;49.30;;;;;;932524;150;27368;-78
2022/03/13 02:57:49;;;;;;;7.17;5.70;;;2.80;49.40;;;;;;932703;150;27397;-79
2022/03/13 03:00:16;;;;;;;10.00;6.30;;;2.70;49.30;;;;;;931753;150;27708;-79
2022/03/13 03:02:42;;;;;;;7.13;5.90;;;2.80;49.40;;;;;;935378;150;27408;-79
2022/03/13 03:05:09;;;;;;;7.80;5.60;;;2.80;49.50;;;;;;932156;150;27425;-79
2022/03/13 03:07:35;;;;;;;9.73;6.37;;;2.80;49.60;;;;;;932156;150;27473;-79
2022/03/13 03:10:02;;;;;;;7.90;5.93;;;2.80;49.70;;;;;;934424;150;27386;-79
2022/03/13 03:12:28;;;;;;;7.37;6.03;;;2.80;49.70;;;;;;932760;150;27322;-79
2022/03/13 03:14:55;;;;;;;8.00;5.97;;;2.80;49.80;;;;;;932050;150;27428;-79
2022/03/13 03:17:22;;;;;;;8.63;6.53;;;2.70;49.80;;;;;;934748;150;27394;-79
2022/03/13 03:19:48;;;;;;;7.90;6.43;;;2.70;49.90;;;;;;931399;150;27400;-78
2022/03/13 03:22:15;;;;;;;8.27;6.70;;;2.70;50.00;;;;;;934520;150;27378;-79
2022/03/13 03:24:41;;;;;;;8.83;7.03;;;2.60;50.00;;;;;;926183;150;27516;-79
2022/03/13 03:27:08;;;;;;;7.47;6.07;;;2.60;50.20;;;;;;921529;150;27319;-79
2022/03/13 03:29:35;;;;;;;6.87;6.03;;;2.60;50.20;;;;;;922620;150;27310;-78
2022/03/13 03:32:02;;;;;;;7.90;6.10;;;2.50;50.20;;;;;;924098;150;27479;-79
2022/03/13 03:34:28;;;;;;;9.07;6.07;;;2.50;50.30;;;;;;922178;150;27470;-79
2022/03/13 03:36:58;;;;;;;6.57;5.87;;;2.40;50.30;;;;;;920420;150;27409;-79
2022/03/13 03:39:24;;;;;;;8.63;6.07;;;2.40;50.40;;;;;;923133;150;27768;-76
2022/03/13 03:41:50;;;;;;;6.13;5.53;;;2.40;50.50;;;;;;924479;150;27322;-77
2022/03/13 03:44:17;;;;;;;8.87;6.30;;;2.40;50.70;;;;;;921610;150;27471;-75
2022/03/13 03:46:43;;;;;;;7.37;6.30;;;2.40;50.70;;;;;;922528;150;27850;-77
2022/03/13 03:49:10;;;;;;;7.33;6.17;;;2.40;50.80;;;;;;920923;150;27339;-75
2022/03/13 03:51:37;;;;;;;7.57;6.47;;;2.30;50.90;;;;;;923350;150;27379;-76
2022/03/13 03:54:03;;;;;;;7.63;6.53;;;2.30;50.90;;;;;;922518;150;27268;-77
2022/03/13 03:56:30;;;;;;;6.43;5.77;;;2.30;50.90;;;;;;921359;150;27661;-75
2022/03/13 03:58:56;;;;;;;9.13;6.13;;;2.30;50.90;;;;;;923341;150;28072;-75
2022/03/13 04:01:23;;;;;;;7.73;6.20;;;2.20;51.00;;;;;;922938;150;27432;-76
2022/03/13 04:03:49;;;;;;;7.23;5.67;;;2.20;51.00;;;;;;920128;150;27377;-76
2022/03/13 04:06:16;;;;;;;7.97;6.60;;;2.20;51.00;;;;;;921618;150;27332;-76
2022/03/13 04:08:43;;;;;;;6.17;5.57;;;2.10;51.30;;;;;;920866;150;27438;-79
2022/03/13 04:11:09;;;;;;;9.83;6.67;;;2.10;51.20;;;;;;922498;150;27502;-76
2022/03/13 04:13:38;;;;;;;8.13;5.87;;;2.10;51.30;;;;;;919405;150;27439;-75
2022/03/13 04:16:02;;;;;;;6.77;5.97;;;2.00;51.40;;;;;;920951;150;27383;-75
2022/03/13 04:18:29;;;;;;;9.63;6.23;;;2.00;51.40;;;;;;923543;150;28019;-76
2022/03/13 04:20:55;;;;;;;6.70;6.00;;;2.00;51.60;;;;;;918921;150;27455;-76
2022/03/13 04:23:22;;;;;;;7.50;6.50;;;2.00;51.60;;;;;;921055;150;27725;-75
2022/03/13 04:25:49;;;;;;;7.37;6.03;;;1.90;51.60;;;;;;920164;150;27473;-76
2022/03/13 04:28:15;;;;;;;6.13;5.53;;;1.90;51.70;;;;;;928662;149;27355;-75
2022/03/13 04:30:43;;;;;;;7.50;5.90;;;1.90;51.70;;;;;;925946;149;27266;-76
2022/03/13 04:33:09;;;;;;;6.53;5.57;;;1.90;51.80;;;;;;921583;150;27382;-75
2022/03/13 04:35:35;;;;;;;7.03;6.33;;;1.90;51.80;;;;;;938424;148;27826;-75
2022/03/13 04:38:02;;;;;;;7.33;5.97;;;1.90;51.90;;;;;;937470;148;27286;-76
2022/03/13 04:40:28;;;;;;;7.17;5.50;;;1.90;52.00;;;;;;932871;148;27349;-76
2022/03/13 04:42:55;;;;;;;6.40;5.30;;;1.90;52.10;;;;;;931716;148;27877;-76
2022/03/13 04:45:22;;;;;;;5.03;4.40;;;1.80;52.00;;;;;;930991;148;27345;-78
2022/03/13 04:47:48;;;;;;;5.23;4.50;;;1.80;52.00;;;;;;932992;148;27463;-76
2022/03/13 04:50:14;;;;;;;5.63;4.73;;;1.80;52.00;;;;;;916110;150;27270;-75
2022/03/13 04:52:41;;;;;;;6.23;5.20;;;1.80;52.00;;;;;;931414;148;27262;-76
2022/03/13 04:55:08;;;;;;;7.93;6.03;;;1.80;52.00;;;;;;930945;148;27376;-76
2022/03/13 04:57:34;;;;;;;9.73;6.20;;;1.70;52.10;;;;;;932213;148;27300;-77
2022/03/13 05:00:01;;;;;;;6.50;5.83;;;1.80;52.10;;;;;;915170;150;27355;-76
2022/03/13 05:02:28;;;;;;;6.50;5.13;;;1.70;52.00;;;;;;931970;148;29185;-76
2022/03/13 05:04:54;;;;;;;6.23;5.37;;;1.70;52.10;;;;;;931571;148;27316;-75
2022/03/13 05:07:22;;;;;;;6.80;5.77;;;1.70;52.10;;;;;;932321;149;27391;-77
2022/03/13 05:09:47;;;;;;;7.00;5.90;;;1.70;52.30;;;;;;930991;149;27458;-75
2022/03/13 05:12:14;;;;;;;6.73;6.13;;;1.70;52.40;;;;;;935242;150;27365;-75
2022/03/13 05:14:40;;;;;;;9.13;5.90;;;1.70;52.30;;;;;;933211;150;27392;-77
2022/03/13 05:17:07;;;;;;;6.40;5.13;;;1.70;52.20;;;;;;932814;148;27372;-76
2022/03/13 05:19:34;;;;;;;7.87;5.70;;;1.60;52.30;;;;;;931342;148;27280;-78
2022/03/13 05:22:00;;;;;;;6.53;5.87;;;1.60;52.40;;;;;;931230;148;27376;-78
2022/03/13 05:24:27;;;;;;;6.80;5.50;;;1.60;52.50;;;;;;932654;148;27431;-76
2022/03/13 05:26:53;;;;;;;8.23;6.67;;;1.60;52.50;;;;;;936284;149;27397;-77
2022/03/13 05:29:20;;;;;;;7.83;6.53;;;1.60;52.60;;;;;;934727;149;27406;-76
2022/03/13 05:31:46;;;;;;;7.73;6.30;;;1.60;52.60;;;;;;937958;149;27452;-76
2022/03/13 05:34:13;;;;;;;8.67;5.67;;;1.50;52.60;;;;;;934150;149;27358;-76
2022/03/13 05:36:40;;;;;;;6.20;5.57;;;1.60;52.70;;;;;;936374;149;27372;-75
2022/03/13 05:39:06;;;;;;;9.00;6.03;;;1.50;52.70;;;;;;943177;148;28296;-76
2022/03/13 05:41:33;;;;;;;8.40;5.93;;;1.60;52.80;;;;;;916403;150;27439;-76
2022/03/13 05:43:59;;;;;;;5.47;4.73;;;1.50;52.80;;;;;;937985;148;27374;-78
2022/03/13 05:46:26;;;;;;;7.50;5.40;;;1.50;52.90;;;;;;936280;148;27382;-76
2022/03/13 05:48:53;;;;;;;6.70;6.00;;;1.50;52.90;;;;;;940451;148;27434;-76
2022/03/13 05:51:19;;;;;;;7.27;5.53;;;1.50;53.00;;;;;;937967;148;27294;-76
2022/03/13 05:53:46;;;;;;;7.63;5.60;;;1.60;53.20;;;;;;936247;148;27315;-76
2022/03/13 05:56:12;;;;;;;11.20;6.13;;;1.50;53.20;;;;;;937486;148;28181;-76
2022/03/13 05:58:39;;;;;;;8.47;6.03;;;1.50;53.20;;;;;;938000;148;27954;-78
2022/03/13 06:01:06;;;;;;;7.10;5.90;;;1.60;53.30;;;;;;936325;148;27367;-76
2022/03/13 06:03:32;;;;;;;6.33;5.60;;;1.60;53.30;;;;;;933244;149;27307;-76
2022/03/13 06:06:01;;;;;;;6.97;5.57;;;1.60;53.40;;;;;;938989;147;27328;-76
2022/03/13 06:08:25;;;;;;;7.37;6.43;;;1.70;53.70;;;;;;952771;147;27342;-76
2022/03/13 06:10:52;;;;;;;7.40;6.23;;;1.80;54.00;;;;;;937224;148;27399;-78
2022/03/13 06:13:19;;;;;;;9.33;6.20;;;2.00;54.30;;;;;;938203;148;27355;-75
2022/03/13 06:15:45;;;;;;;7.37;5.57;;;2.20;54.50;;;;;;936714;149;27326;-76
2022/03/13 06:18:12;;;;;;;6.10;5.40;;;2.50;54.80;;;;;;939814;148;27291;-76
2022/03/13 06:20:38;;;;;;;6.23;5.63;;;2.80;54.90;;;;;;932503;150;27358;-76
2022/03/13 06:23:05;;;;;;;7.73;6.30;;;3.20;54.90;;;;;;934088;150;27291;-76
2022/03/13 06:25:31;;;;;;;7.00;6.10;;;3.70;54.90;;;;;;931871;150;27397;-76
2022/03/13 06:27:58;;;;;;;7.07;5.97;;;4.10;54.70;;;;;;925193;149;27402;-76
2022/03/13 06:30:25;;;;;;;7.90;6.37;;;4.60;54.60;;;;;;924914;149;27438;-76
2022/03/13 06:32:51;;;;;;;7.63;5.80;;;5.10;54.30;;;;;;930086;149;27773;-75
2022/03/13 06:35:18;;;;;;;7.20;6.20;;;5.70;54.10;;;;;;922058;150;27802;-77
2022/03/13 06:37:44;;;;;;;8.47;5.97;;;6.20;53.80;;;;;;937726;148;27370;-76
2022/03/13 06:40:11;;;;;;;9.63;6.87;;;6.80;53.50;;;;;;934432;148;27456;-78
2022/03/13 06:42:38;;;;;;;6.40;5.80;;;7.40;53.10;;;;;;936391;148;27336;-76
2022/03/13 06:45:04;;;;;;;7.10;6.10;;;8.00;52.70;;;;;;934047;148;27281;-78
2022/03/13 06:47:31;;;;;;;7.80;6.53;;;8.60;51.90;;;;;;929230;148;27289;-76
2022/03/13 06:49:57;;;;;;;8.57;7.17;;;9.20;51.40;;;;;;926767;149;27388;-79
2022/03/13 06:52:24;;;;;;;9.63;8.07;;;9.80;50.90;;;;;;919915;150;27376;-76
2022/03/13 06:54:52;;;;;;;12.67;9.13;;;10.40;50.40;;;;;;929724;148;27321;-77
2022/03/13 06:57:18;;;;;;;9.60;7.47;;;11.00;49.80;;;;;;927328;148;27422;-76
2022/03/13 06:59:44;;;;;;;10.73;8.47;;;11.60;49.30;;;;;;932443;150;27441;-77
2022/03/13 07:02:11;;;;;;;9.10;8.20;;;12.20;48.80;;;;;;928066;150;27292;-78
2022/03/13 07:04:37;;;;;;;11.30;8.07;;;12.80;48.20;;;;;;925442;149;27476;-76
2022/03/13 07:07:03;;;;;;;7.80;6.83;;;13.40;47.00;;;;;;939822;148;27458;-76
2022/03/13 07:09:30;;;;;;;7.23;6.40;;;14.00;47.60;;;;;;938977;148;27309;-76
2022/03/13 07:11:57;;;;;;;7.57;6.77;;;14.50;46.30;;;;;;931935;148;27338;-77
2022/03/13 07:14:24;;;;;;;7.37;6.53;;;15.00;45.40;;;;;;932706;148;27439;-76
2022/03/13 07:16:50;;;;;;;6.42;5.83;;;15.60;44.80;;;;;;931161;148;27349;-76
2022/03/13 07:19:16;;;;;;;6.65;5.22;;;16.10;43.90;;;;;;930313;148;27313;-77
2022/03/13 07:21:43;;;;;;;5.10;4.60;;;16.50;43.10;;;;;;928567;150;27304;-77
2022/03/13 07:24:09;;;;;;;5.35;4.72;;;17.00;42.50;;;;;;937429;149;27390;-78
2022/03/13 07:26:36;;;;;;;5.15;4.62;;;17.30;42.00;;;;;;935623;149;27396;-79
2022/03/13 07:29:03;;;;;;;4.92;4.12;;;17.70;41.50;;;;;;927574;150;27472;-76
2022/03/13 07:31:29;;;;;;;5.17;4.67;;;18.10;40.70;;;;;;923727;154;27357;-78
2022/03/13 07:33:56;;;;;;;6.15;4.20;;;18.50;40.20;;;;;;922171;154;27339;-76
2022/03/13 07:36:22;;;;;;;5.87;5.03;;;18.80;39.60;;;;;;924798;153;27286;-77
2022/03/13 07:38:49;;;;;;;5.58;4.00;;;19.10;39.40;;;;;;924796;154;27385;-78
2022/03/13 07:41:16;;;;;;;6.03;4.90;;;19.50;38.90;;;;;;924925;153;27785;-77
2022/03/13 07:43:42;;;;;;;5.10;4.40;;;19.80;38.30;;;;;;923638;153;27322;-77
2022/03/13 07:46:09;;;;;;;5.00;4.25;;;20.10;37.80;;;;;;923988;153;27395;-80
2022/03/13 07:48:35;;;;;;;4.22;3.83;;;20.40;37.20;;;;;;923460;152;27267;-77
2022/03/13 07:51:03;;;;;;;4.03;3.70;;;20.70;36.70;;;;;;923940;152;27444;-78
2022/03/13 07:53:28;;;;;;;5.70;3.70;;;20.90;36.10;;;;;;923413;152;27776;-77
2022/03/13 07:55:55;;;;;;;4.30;3.90;;;21.10;35.70;;;;;;925756;153;27341;-77
2022/03/13 07:58:22;;;;;;;5.08;3.85;;;21.30;35.30;;;;;;923972;154;27917;-77
2022/03/13 08:00:49;;;;;;;4.37;3.98;;;21.40;34.90;;;;;;924642;151;27794;-77
2022/03/13 08:03:16;;;;;;;5.05;4.30;;;21.50;34.40;;;;;;924942;152;27459;-79
2022/03/13 08:05:41;;;;;;;4.05;3.75;;;21.70;34.00;;;;;;924003;153;27353;-77
2022/03/13 08:08:08;;;;;;;4.80;4.12;;;21.90;34.00;;;;;;925087;153;28607;-77
2022/03/13 08:10:35;;;;;;;5.80;4.25;;;22.00;33.80;;;;;;926859;153;27294;-77
2022/03/13 08:13:01;;;;;;;4.50;4.10;;;22.20;33.50;;;;;;924069;154;27355;-78
2022/03/13 08:15:28;;;;;;;5.45;4.00;;;22.30;33.30;;;;;;922725;152;27333;-79
2022/03/13 08:17:54;;;;;;;4.40;3.80;;;22.40;33.00;;;;;;923335;154;27467;-78
2022/03/13 08:20:21;;;;;;;4.90;3.70;;;22.60;32.60;;;;;;926275;153;27424;-77
2022/03/13 08:22:48;;;;;;;4.22;3.87;;;22.70;32.00;;;;;;922681;152;27355;-77
2022/03/13 08:25:18;;;;;;;4.62;4.00;;;22.80;31.90;;;;;;923983;154;27284;-77
2022/03/13 08:27:41;;;;;;;4.10;3.65;;;23.00;31.80;;;;;;923415;150;27328;-79
2022/03/13 08:30:07;;;;;;;4.60;3.98;;;23.10;31.50;;;;;;921631;150;27478;-78
2022/03/13 08:32:34;;;;;;;4.50;4.03;;;23.20;31.30;;;;;;923255;150;27399;-77
2022/03/13 08:35:00;;;;;;;4.35;3.95;;;23.30;30.50;;;;;;921446;150;27292;-77
2022/03/13 08:37:27;;;;;;;4.03;3.62;;;23.40;30.00;;;;;;921883;150;27347;-77
2022/03/13 08:39:54;;;;;;;3.80;3.50;;;23.40;29.60;;;;;;921898;150;27820;-80
2022/03/13 08:42:20;;;;;;;3.80;3.47;;;23.30;29.10;;;;;;922893;150;27470;-77
2022/03/13 08:44:47;;;;;;;5.87;4.25;;;23.20;29.20;;;;;;922268;150;27286;-77
2022/03/13 08:47:13;;;;;;;3.83;3.52;;;23.10;29.20;;;;;;920697;150;27343;-77
2022/03/13 08:49:40;;;;;;;4.58;3.65;;;22.90;29.00;;;;;;920355;150;27359;-78
2022/03/13 08:52:07;;;;;;;4.17;3.75;;;22.80;29.30;;;;;;922656;150;27442;-79
2022/03/13 08:54:34;;;;;;;4.05;3.75;;;22.80;28.10;;;;;;920031;150;27456;-78
2022/03/13 08:57:01;;;;;;;4.40;4.00;;;22.70;28.70;;;;;;919387;150;27342;-77
2022/03/13 08:59:26;;;;;;;4.85;3.95;;;22.60;27.70;;;;;;921665;150;27400;-78
2022/03/13 09:01:53;;;;;;;4.40;3.83;;;22.50;27.90;;;;;;920690;150;27274;-77
2022/03/13 09:04:20;;;;;;;4.00;3.70;;;22.40;28.30;;;;;;921207;150;27368;-78
2022/03/13 09:06:46;;;;;;;4.33;3.75;;;22.30;28.30;;;;;;920801;150;27410;-79
2022/03/13 09:09:13;;;;;;;4.35;3.83;;;22.20;28.50;;;;;;921833;150;27412;-77
2022/03/13 09:11:39;;;;;;;4.92;3.40;;;22.10;28.60;;;;;;922302;150;27383;-77
2022/03/13 09:14:06;;;;;;;8.10;3.35;;;22.10;28.70;;;;;;922496;150;27860;-80
2022/03/13 09:16:33;;;;;;;3.90;3.58;;;22.10;28.80;;;;;;920315;150;27327;-78
2022/03/13 09:18:59;;;;;;;3.90;3.60;;;22.20;29.20;;;;;;921319;150;27384;-79
2022/03/13 09:21:26;;;;;;;3.95;3.65;;;22.30;28.50;;;;;;922949;150;27376;-77
2022/03/13 09:23:52;;;;;;;3.70;3.40;;;22.40;28.80;;;;;;922553;150;28228;-79
2022/03/13 09:26:19;;;;;;;3.95;3.65;;;22.60;28.80;;;;;;922325;150;27455;-80
2022/03/13 09:28:45;;;;;;;3.92;3.62;;;22.70;28.80;;;;;;919994;150;27349;-77
2022/03/13 09:31:12;;;;;;;4.00;3.60;;;22.90;28.60;;;;;;919853;153;27395;-79
2022/03/13 09:33:39;;;;;;;4.08;3.67;;;23.10;28.30;;;;;;916399;152;27473;-80
2022/03/13 09:36:05;;;;;;;3.98;3.67;;;23.20;28.10;;;;;;917389;155;27395;-77
2022/03/13 09:38:32;;;;;;;4.00;3.67;;;23.20;28.00;;;;;;917435;154;27284;-78
2022/03/13 09:40:58;;;;;;;4.17;3.77;;;23.30;28.10;;;;;;916728;154;27376;-78
2022/03/13 09:43:25;;;;;;;3.92;3.60;;;23.30;27.90;;;;;;915569;153;27316;-78
2022/03/13 09:45:52;;;;;;;3.85;3.52;;;23.30;27.70;;;;;;918064;155;27354;-78
2022/03/13 09:48:18;;;;;;;4.20;3.80;;;23.30;27.80;;;;;;916203;152;27355;-76
2022/03/13 09:50:45;;;;;;;3.77;3.47;;;23.30;27.70;;;;;;917776;153;27372;-75
2022/03/13 09:53:12;;;;;;;5.17;3.95;;;23.20;27.60;;;;;;917760;155;27326;-76
2022/03/13 09:55:38;;;;;;;3.85;3.55;;;23.10;27.50;;;;;;918021;152;27453;-76
2022/03/13 09:58:10;;;;;;;4.28;3.87;;;23.00;27.50;;;;;;918370;155;27368;-78
2022/03/13 10:00:35;;;;;;;5.30;4.00;;;22.80;27.40;;;;;;916033;152;27423;-75
2022/03/13 10:03:00;;;;;;;4.55;4.15;;;22.60;27.40;;;;;;917878;152;27302;-75
2022/03/13 10:05:28;;;;;;;4.33;3.87;;;22.40;27.30;;;;;;916867;153;27458;-76
2022/03/13 10:07:59;;;;;;;3.92;3.60;;;22.20;27.10;;;;;;918402;152;27476;-78
2022/03/13 10:10:29;;;;;;;4.15;3.72;;;22.00;27.20;;;;;;916339;155;27464;-75
2022/03/13 10:12:55;;;;;;;4.62;4.17;;;21.80;27.70;;;;;;918284;155;27617;-76
2022/03/13 10:15:22;;;;;;;6.30;4.08;;;21.60;27.30;;;;;;916832;155;27922;-76
2022/03/13 10:17:48;;;;;;;6.65;4.28;;;21.40;27.40;;;;;;919527;155;27334;-77
2022/03/13 10:20:23;;;;;;;4.53;4.10;;;21.20;27.20;;;;;;918403;152;27470;-76
2022/03/13 10:22:47;;;;;;;4.50;4.10;;;21.00;27.10;;;;;;916764;154;27360;-75
2022/03/13 10:25:15;;;;;;;6.33;4.17;;;20.70;27.00;;;;;;919315;154;27448;-76
2022/03/13 10:27:41;;;;;;;4.65;4.22;;;20.40;27.00;;;;;;917114;155;27860;-76
2022/03/13 10:30:08;;;;;;;4.58;4.15;;;20.10;26.90;;;;;;930994;150;27338;-77
2022/03/13 10:32:34;;;;;;;4.87;4.22;;;19.80;27.20;;;;;;932216;150;27378;-75
2022/03/13 10:35:01;;;;;;;5.30;4.35;;;19.50;27.20;;;;;;933085;150;27363;-78
2022/03/13 10:37:33;;;;;;;5.05;4.55;;;19.30;27.20;;;;;;933852;150;27412;-75
2022/03/13 10:40:24;;;;;;;4.62;4.22;;;19.00;27.30;;;;;;933521;150;27502;-78
2022/03/13 10:42:50;;;;;;;5.72;4.37;;;18.70;27.50;;;;;;934262;150;27549;-77
2022/03/13 10:45:34;;;;;;;4.33;3.92;;;18.40;27.70;;;;;;932568;150;27296;-78
2022/03/13 10:48:23;;;;;;;4.58;4.17;;;18.20;27.70;;;;;;931680;150;27412;-77
2022/03/13 10:50:50;;;;;;;4.25;3.90;;;18.00;27.80;;;;;;932606;150;27346;-77
2022/03/13 10:53:16;;;;;;;4.83;4.40;;;17.70;27.80;;;;;;932849;150;27335;-78
2022/03/13 10:55:42;;;;;;;6.33;4.60;;;17.50;28.00;;;;;;932501;150;27482;-78
2022/03/13 10:58:09;;;;;;;6.35;4.85;;;17.30;28.00;;;;;;933767;150;27354;-78
2022/03/13 11:00:36;;;;;;;5.22;4.72;;;17.10;28.20;;;;;;934233;150;27373;-76
2022/03/13 11:03:11;;;;;;;5.60;4.90;;;16.90;28.40;;;;;;934136;150;27376;-76
2022/03/13 11:05:37;;;;;;;5.27;4.77;;;16.70;28.40;;;;;;931766;149;27424;-77
2022/03/13 11:08:04;;;;;;;5.03;4.60;;;16.60;28.60;;;;;;933678;150;27451;-79
2022/03/13 11:10:31;;;;;;;5.90;4.90;;;16.40;28.70;;;;;;932457;150;27362;-76
2022/03/13 11:12:57;;;;;;;4.80;4.40;;;16.30;28.80;;;;;;934068;150;27285;-76
2022/03/13 11:15:30;;;;;;;4.53;4.13;;;16.20;28.80;;;;;;931279;150;27443;-77
2022/03/13 11:17:50;;;;;;;8.00;4.50;;;16.10;29.00;;;;;;933522;150;27332;-76
2022/03/13 11:20:17;;;;;;;7.13;5.00;;;16.00;29.10;;;;;;933592;150;27353;-79
2022/03/13 11:22:44;;;;;;;6.20;4.80;;;15.90;29.20;;;;;;931947;150;27484;-76
2022/03/13 11:25:10;;;;;;;5.30;4.80;;;15.80;29.20;;;;;;933504;150;27342;-76
2022/03/13 11:27:37;;;;;;;5.53;4.97;;;15.80;29.40;;;;;;932039;150;27332;-77
2022/03/13 11:30:03;;;;;;;7.53;4.83;;;15.80;29.50;;;;;;926027;150;27375;-77
2022/03/13 11:32:40;;;;;;;5.57;4.47;;;15.80;29.60;;;;;;921254;150;27359;-79
2022/03/13 11:35:08;;;;;;;4.87;4.47;;;15.80;29.70;;;;;;921825;150;27416;-76
2022/03/13 11:37:35;;;;;;;5.33;4.70;;;15.80;29.80;;;;;;922693;150;27465;-76
2022/03/13 11:40:01;;;;;;;5.60;5.10;;;15.90;29.80;;;;;;920463;150;27323;-77
2022/03/13 11:42:28;;;;;;;5.83;5.23;;;15.90;29.80;;;;;;922110;150;27366;-78
2022/03/13 11:44:54;;;;;;;5.20;4.70;;;15.90;29.80;;;;;;919836;150;27369;-76
2022/03/13 11:47:24;;;;;;;5.60;4.77;;;16.00;29.90;;;;;;921018;150;28688;-76
2022/03/13 11:49:48;;;;;;;6.17;5.00;;;16.00;30.00;;;;;;919748;150;27390;-76
2022/03/13 11:52:17;;;;;;;5.67;5.17;;;16.00;30.00;;;;;;922783;150;27389;-76
2022/03/13 11:54:50;;;;;;;5.87;5.05;;;16.10;30.00;;;;;;922817;150;27320;-78
2022/03/13 11:57:19;;;;;;;7.17;5.45;;;16.10;29.90;;;;;;921640;150;27451;-76
2022/03/13 11:59:49;;;;;;;6.10;5.47;;;16.20;29.90;;;;;;919416;150;27961;-76
2022/03/13 12:02:33;;;;;;;5.70;5.20;;;16.20;30.00;;;;;;921422;150;27876;-76
2022/03/13 12:05:25;;;;;;;6.87;5.60;;;16.30;30.00;;;;;;919717;150;27442;-78
2022/03/13 12:07:54;;;;;;;6.62;5.25;;;16.30;30.00;;;;;;920991;150;27312;-79
2022/03/13 12:10:34;;;;;;;6.40;5.55;;;16.40;30.00;;;;;;923389;150;27456;-76
2022/03/13 12:13:08;;;;;;;6.28;5.67;;;16.40;30.00;;;;;;917010;150;27343;-77
2022/03/13 12:15:35;;;;;;;7.10;5.00;;;16.40;29.90;;;;;;920650;150;27463;-76
2022/03/13 12:18:03;;;;;;;5.80;5.30;;;16.40;30.00;;;;;;921527;150;27421;-77
2022/03/13 12:20:31;;;;;;;5.20;4.60;;;16.50;29.90;;;;;;921169;150;27422;-78
2022/03/13 12:22:54;;;;;;;6.13;5.43;;;16.50;29.90;;;;;;921442;150;27451;-76
2022/03/13 12:25:27;;;;;;;4.85;4.42;;;16.50;29.90;;;;;;924130;150;28421;-76
2022/03/13 12:28:01;;;;;;;5.30;4.80;;;16.50;29.80;;;;;;922254;150;27374;-76
2022/03/13 12:30:26;;;;;;;5.55;4.95;;;16.50;29.90;;;;;;928751;149;27434;-79
2022/03/13 12:33:04;;;;;;;5.75;4.83;;;16.50;29.90;;;;;;936964;149;27370;-76
2022/03/13 12:35:31;;;;;;;6.45;5.75;;;16.50;29.90;;;;;;937379;149;28012;-76
2022/03/13 12:37:57;;;;;;;6.28;5.67;;;16.50;30.00;;;;;;939734;149;27286;-76
2022/03/13 12:40:24;;;;;;;6.08;5.28;;;16.50;30.00;;;;;;939551;149;27420;-76
2022/03/13 12:42:54;;;;;;;6.53;5.30;;;16.50;30.00;;;;;;940778;149;27452;-79
2022/03/13 12:45:20;;;;;;;5.35;4.85;;;16.50;30.00;;;;;;939944;149;27397;-76
2022/03/13 12:47:48;;;;;;;8.67;5.23;;;16.50;30.00;;;;;;938346;149;27370;-77
2022/03/13 12:50:13;;;;;;;6.85;5.10;;;16.60;30.10;;;;;;942202;149;27439;-77